sensor_id;sensor_type;location;lat;lon;timestamp;P1;durP1;ratioP1;P2;durP2;ratioP2
75059;SDS011;63640;59.264;18.116;2023-07-09T00:01:53;6.35;;;2.72;;
75059;SDS011;63640;59.264;18.116;2023-07-09T00:04:18;4.75;;;2.20;;
75059;SDS011;63640;59.264;18.116;2023-07-09T00:06:44;5.63;;;2.22;;
75059;SDS011;63640;59.264;18.116;2023-07-09T00:09:16;5.93;;;2.15;;
75059;SDS011;63640;59.264;18.116;2023-07-09T00:11:43;4.65;;;2.60;;
75059;SDS011;63640;59.264;18.116;2023-07-09T00:14:10;9.70;;;2.42;;
75059;SDS011;63640;59.264;18.116;2023-07-09T00:16:37;6.05;;;2.33;;
75059;SDS011;63640;59.264;18.116;2023-07-09T00:19:04;5.20;;;2.20;;
75059;SDS011;63640;59.264;18.116;2023-07-09T00:21:30;5.18;;;2.53;;
75059;SDS011;63640;59.264;18.116;2023-07-09T00:24:00;4.70;;;2.35;;
75059;SDS011;63640;59.264;18.116;2023-07-09T00:26:30;6.15;;;2.60;;
75059;SDS011;63640;59.264;18.116;2023-07-09T00:28:57;10.40;;;2.63;;
75059;SDS011;63640;59.264;18.116;2023-07-09T00:31:26;5.05;;;2.70;;
75059;SDS011;63640;59.264;18.116;2023-07-09T00:33:52;4.90;;;2.30;;
75059;SDS011;63640;59.264;18.116;2023-07-09T00:36:28;6.30;;;2.50;;
75059;SDS011;63640;59.264;18.116;2023-07-09T00:38:56;5.32;;;2.58;;
75059;SDS011;63640;59.264;18.116;2023-07-09T00:41:36;5.13;;;2.28;;
75059;SDS011;63640;59.264;18.116;2023-07-09T00:49:26;5.40;;;2.67;;
75059;SDS011;63640;59.264;18.116;2023-07-09T00:51:54;5.78;;;2.90;;
75059;SDS011;63640;59.264;18.116;2023-07-09T00:54:24;8.13;;;2.75;;
75059;SDS011;63640;59.264;18.116;2023-07-09T00:56:55;5.00;;;2.63;;
75059;SDS011;63640;59.264;18.116;2023-07-09T00:59:24;6.47;;;2.83;;
75059;SDS011;63640;59.264;18.116;2023-07-09T01:01:54;4.93;;;2.38;;
75059;SDS011;63640;59.264;18.116;2023-07-09T01:04:20;6.97;;;2.88;;
75059;SDS011;63640;59.264;18.116;2023-07-09T01:06:53;4.50;;;2.53;;
75059;SDS011;63640;59.264;18.116;2023-07-09T01:09:20;4.60;;;2.30;;
75059;SDS011;63640;59.264;18.116;2023-07-09T01:11:46;5.55;;;2.58;;
75059;SDS011;63640;59.264;18.116;2023-07-09T01:14:13;5.70;;;2.22;;
75059;SDS011;63640;59.264;18.116;2023-07-09T01:16:50;4.90;;;2.60;;
75059;SDS011;63640;59.264;18.116;2023-07-09T01:19:26;5.32;;;2.65;;
75059;SDS011;63640;59.264;18.116;2023-07-09T01:21:58;4.85;;;2.40;;
75059;SDS011;63640;59.264;18.116;2023-07-09T01:27:17;4.78;;;2.20;;
75059;SDS011;63640;59.264;18.116;2023-07-09T01:29:45;6.00;;;2.63;;
75059;SDS011;63640;59.264;18.116;2023-07-09T01:32:14;5.55;;;2.85;;
75059;SDS011;63640;59.264;18.116;2023-07-09T01:34:40;5.22;;;2.80;;
75059;SDS011;63640;59.264;18.116;2023-07-09T01:37:06;5.63;;;2.60;;
75059;SDS011;63640;59.264;18.116;2023-07-09T01:39:32;5.32;;;2.60;;
75059;SDS011;63640;59.264;18.116;2023-07-09T01:41:57;5.15;;;2.50;;
75059;SDS011;63640;59.264;18.116;2023-07-09T01:44:23;5.13;;;2.53;;
75059;SDS011;63640;59.264;18.116;2023-07-09T01:46:48;4.90;;;2.40;;
75059;SDS011;63640;59.264;18.116;2023-07-09T01:49:14;5.18;;;2.92;;
75059;SDS011;63640;59.264;18.116;2023-07-09T01:51:40;5.90;;;2.75;;
75059;SDS011;63640;59.264;18.116;2023-07-09T01:54:05;6.40;;;2.53;;
75059;SDS011;63640;59.264;18.116;2023-07-09T01:56:31;4.75;;;2.10;;
75059;SDS011;63640;59.264;18.116;2023-07-09T01:58:56;5.28;;;2.53;;
75059;SDS011;63640;59.264;18.116;2023-07-09T02:01:29;6.45;;;2.55;;
75059;SDS011;63640;59.264;18.116;2023-07-09T02:03:54;4.90;;;2.70;;
75059;SDS011;63640;59.264;18.116;2023-07-09T02:06:20;6.32;;;2.78;;
75059;SDS011;63640;59.264;18.116;2023-07-09T02:08:49;5.47;;;2.53;;
75059;SDS011;63640;59.264;18.116;2023-07-09T02:11:15;5.97;;;2.70;;
75059;SDS011;63640;59.264;18.116;2023-07-09T02:13:40;5.00;;;2.17;;
75059;SDS011;63640;59.264;18.116;2023-07-09T02:16:06;6.75;;;2.53;;
75059;SDS011;63640;59.264;18.116;2023-07-09T02:18:31;6.63;;;2.70;;
75059;SDS011;63640;59.264;18.116;2023-07-09T02:20:57;5.20;;;2.70;;
75059;SDS011;63640;59.264;18.116;2023-07-09T02:23:25;4.85;;;2.45;;
75059;SDS011;63640;59.264;18.116;2023-07-09T02:25:54;5.20;;;2.83;;
75059;SDS011;63640;59.264;18.116;2023-07-09T02:28:19;6.40;;;3.22;;
75059;SDS011;63640;59.264;18.116;2023-07-09T02:30:45;5.85;;;2.95;;
75059;SDS011;63640;59.264;18.116;2023-07-09T02:33:10;5.60;;;2.88;;
75059;SDS011;63640;59.264;18.116;2023-07-09T02:35:36;5.20;;;2.67;;
75059;SDS011;63640;59.264;18.116;2023-07-09T02:38:02;5.65;;;2.83;;
75059;SDS011;63640;59.264;18.116;2023-07-09T02:40:28;6.28;;;3.00;;
75059;SDS011;63640;59.264;18.116;2023-07-09T02:42:54;6.15;;;2.88;;
75059;SDS011;63640;59.264;18.116;2023-07-09T02:45:19;5.35;;;2.78;;
75059;SDS011;63640;59.264;18.116;2023-07-09T02:47:45;6.25;;;2.85;;
75059;SDS011;63640;59.264;18.116;2023-07-09T02:50:11;5.28;;;2.65;;
75059;SDS011;63640;59.264;18.116;2023-07-09T02:52:36;5.57;;;2.60;;
75059;SDS011;63640;59.264;18.116;2023-07-09T02:55:02;5.50;;;2.80;;
75059;SDS011;63640;59.264;18.116;2023-07-09T02:57:27;6.25;;;2.55;;
75059;SDS011;63640;59.264;18.116;2023-07-09T02:59:53;5.32;;;2.80;;
75059;SDS011;63640;59.264;18.116;2023-07-09T03:02:18;4.72;;;2.42;;
75059;SDS011;63640;59.264;18.116;2023-07-09T03:04:44;5.43;;;2.67;;
75059;SDS011;63640;59.264;18.116;2023-07-09T03:07:09;5.65;;;2.70;;
75059;SDS011;63640;59.264;18.116;2023-07-09T03:09:35;6.03;;;2.63;;
75059;SDS011;63640;59.264;18.116;2023-07-09T03:12:00;5.68;;;2.20;;
75059;SDS011;63640;59.264;18.116;2023-07-09T03:14:26;5.47;;;2.63;;
75059;SDS011;63640;59.264;18.116;2023-07-09T03:16:51;6.30;;;2.92;;
75059;SDS011;63640;59.264;18.116;2023-07-09T03:19:17;5.82;;;2.80;;
75059;SDS011;63640;59.264;18.116;2023-07-09T03:21:43;4.97;;;2.28;;
75059;SDS011;63640;59.264;18.116;2023-07-09T03:24:08;6.72;;;2.60;;
75059;SDS011;63640;59.264;18.116;2023-07-09T03:26:34;5.18;;;2.58;;
75059;SDS011;63640;59.264;18.116;2023-07-09T03:28:59;6.30;;;2.28;;
75059;SDS011;63640;59.264;18.116;2023-07-09T03:31:25;6.43;;;2.72;;
75059;SDS011;63640;59.264;18.116;2023-07-09T03:33:51;4.90;;;2.30;;
75059;SDS011;63640;59.264;18.116;2023-07-09T03:36:17;6.07;;;2.50;;
75059;SDS011;63640;59.264;18.116;2023-07-09T03:38:44;4.90;;;2.60;;
75059;SDS011;63640;59.264;18.116;2023-07-09T03:41:10;5.70;;;2.58;;
75059;SDS011;63640;59.264;18.116;2023-07-09T03:43:35;5.18;;;2.42;;
75059;SDS011;63640;59.264;18.116;2023-07-09T03:46:01;5.03;;;2.85;;
75059;SDS011;63640;59.264;18.116;2023-07-09T03:48:26;6.60;;;2.67;;
75059;SDS011;63640;59.264;18.116;2023-07-09T03:50:52;6.13;;;2.72;;
75059;SDS011;63640;59.264;18.116;2023-07-09T03:53:17;5.80;;;2.80;;
75059;SDS011;63640;59.264;18.116;2023-07-09T03:55:45;5.13;;;2.63;;
75059;SDS011;63640;59.264;18.116;2023-07-09T03:58:12;5.70;;;2.88;;
75059;SDS011;63640;59.264;18.116;2023-07-09T04:00:37;8.18;;;2.95;;
75059;SDS011;63640;59.264;18.116;2023-07-09T04:03:03;5.45;;;2.92;;
75059;SDS011;63640;59.264;18.116;2023-07-09T04:05:28;6.90;;;3.00;;
75059;SDS011;63640;59.264;18.116;2023-07-09T04:07:54;5.07;;;2.92;;
75059;SDS011;63640;59.264;18.116;2023-07-09T04:10:20;5.43;;;3.17;;
75059;SDS011;63640;59.264;18.116;2023-07-09T04:12:46;6.72;;;2.97;;
75059;SDS011;63640;59.264;18.116;2023-07-09T04:15:11;7.80;;;3.17;;
75059;SDS011;63640;59.264;18.116;2023-07-09T04:17:40;6.55;;;3.25;;
75059;SDS011;63640;59.264;18.116;2023-07-09T04:20:07;5.75;;;2.83;;
75059;SDS011;63640;59.264;18.116;2023-07-09T04:22:34;5.28;;;3.00;;
75059;SDS011;63640;59.264;18.116;2023-07-09T04:25:01;8.13;;;3.30;;
75059;SDS011;63640;59.264;18.116;2023-07-09T04:27:28;6.10;;;3.03;;
75059;SDS011;63640;59.264;18.116;2023-07-09T04:29:54;7.78;;;3.55;;
75059;SDS011;63640;59.264;18.116;2023-07-09T04:32:20;5.47;;;3.03;;
75059;SDS011;63640;59.264;18.116;2023-07-09T04:34:45;5.95;;;3.08;;
75059;SDS011;63640;59.264;18.116;2023-07-09T04:37:11;7.00;;;3.38;;
75059;SDS011;63640;59.264;18.116;2023-07-09T04:39:38;6.68;;;3.83;;
75059;SDS011;63640;59.264;18.116;2023-07-09T04:42:05;5.30;;;3.25;;
75059;SDS011;63640;59.264;18.116;2023-07-09T04:44:31;5.82;;;3.25;;
75059;SDS011;63640;59.264;18.116;2023-07-09T04:46:56;6.75;;;2.88;;
75059;SDS011;63640;59.264;18.116;2023-07-09T04:49:22;5.65;;;3.00;;
75059;SDS011;63640;59.264;18.116;2023-07-09T04:51:48;6.28;;;3.13;;
75059;SDS011;63640;59.264;18.116;2023-07-09T04:54:13;5.82;;;3.10;;
75059;SDS011;63640;59.264;18.116;2023-07-09T04:56:40;5.82;;;3.13;;
75059;SDS011;63640;59.264;18.116;2023-07-09T04:59:09;11.55;;;3.20;;
75059;SDS011;63640;59.264;18.116;2023-07-09T05:01:34;6.05;;;2.70;;
75059;SDS011;63640;59.264;18.116;2023-07-09T05:04:00;5.20;;;3.10;;
75059;SDS011;63640;59.264;18.116;2023-07-09T05:06:25;5.68;;;3.40;;
75059;SDS011;63640;59.264;18.116;2023-07-09T05:08:51;5.50;;;2.92;;
75059;SDS011;63640;59.264;18.116;2023-07-09T05:11:16;7.57;;;3.38;;
75059;SDS011;63640;59.264;18.116;2023-07-09T05:13:42;5.22;;;3.10;;
75059;SDS011;63640;59.264;18.116;2023-07-09T05:16:07;5.30;;;2.90;;
75059;SDS011;63640;59.264;18.116;2023-07-09T05:18:33;7.03;;;3.40;;
75059;SDS011;63640;59.264;18.116;2023-07-09T05:20:58;5.95;;;3.40;;
75059;SDS011;63640;59.264;18.116;2023-07-09T05:23:24;5.90;;;3.17;;
75059;SDS011;63640;59.264;18.116;2023-07-09T05:25:55;5.97;;;3.40;;
75059;SDS011;63640;59.264;18.116;2023-07-09T05:28:22;5.65;;;3.03;;
75059;SDS011;63640;59.264;18.116;2023-07-09T05:30:47;5.78;;;3.55;;
75059;SDS011;63640;59.264;18.116;2023-07-09T05:33:13;5.85;;;3.50;;
75059;SDS011;63640;59.264;18.116;2023-07-09T05:35:38;5.65;;;3.50;;
75059;SDS011;63640;59.264;18.116;2023-07-09T05:38:04;6.65;;;3.75;;
75059;SDS011;63640;59.264;18.116;2023-07-09T05:40:29;7.72;;;3.80;;
75059;SDS011;63640;59.264;18.116;2023-07-09T05:42:56;8.13;;;3.90;;
75059;SDS011;63640;59.264;18.116;2023-07-09T05:45:21;5.88;;;3.47;;
75059;SDS011;63640;59.264;18.116;2023-07-09T05:47:47;5.50;;;3.10;;
75059;SDS011;63640;59.264;18.116;2023-07-09T05:50:12;7.05;;;3.90;;
75059;SDS011;63640;59.264;18.116;2023-07-09T05:52:38;6.18;;;3.60;;
75059;SDS011;63640;59.264;18.116;2023-07-09T05:55:03;6.18;;;3.40;;
75059;SDS011;63640;59.264;18.116;2023-07-09T05:57:29;6.03;;;3.03;;
75059;SDS011;63640;59.264;18.116;2023-07-09T05:59:55;6.20;;;3.80;;
75059;SDS011;63640;59.264;18.116;2023-07-09T06:02:21;6.18;;;3.55;;
75059;SDS011;63640;59.264;18.116;2023-07-09T06:04:47;6.78;;;3.47;;
75059;SDS011;63640;59.264;18.116;2023-07-09T06:07:15;5.63;;;3.47;;
75059;SDS011;63640;59.264;18.116;2023-07-09T06:09:41;5.32;;;3.28;;
75059;SDS011;63640;59.264;18.116;2023-07-09T06:12:07;5.38;;;3.47;;
75059;SDS011;63640;59.264;18.116;2023-07-09T06:14:33;8.43;;;3.67;;
75059;SDS011;63640;59.264;18.116;2023-07-09T06:16:59;6.93;;;3.30;;
75059;SDS011;63640;59.264;18.116;2023-07-09T06:19:26;4.90;;;2.90;;
75059;SDS011;63640;59.264;18.116;2023-07-09T06:21:52;6.78;;;3.63;;
75059;SDS011;63640;59.264;18.116;2023-07-09T06:24:17;5.45;;;2.60;;
75059;SDS011;63640;59.264;18.116;2023-07-09T06:26:43;5.45;;;2.97;;
75059;SDS011;63640;59.264;18.116;2023-07-09T06:29:08;6.05;;;2.92;;
75059;SDS011;63640;59.264;18.116;2023-07-09T06:31:34;5.75;;;3.00;;
75059;SDS011;63640;59.264;18.116;2023-07-09T06:34:01;5.60;;;2.90;;
75059;SDS011;63640;59.264;18.116;2023-07-09T06:36:26;5.22;;;2.97;;
75059;SDS011;63640;59.264;18.116;2023-07-09T06:38:52;5.25;;;3.20;;
75059;SDS011;63640;59.264;18.116;2023-07-09T06:41:17;6.00;;;3.50;;
75059;SDS011;63640;59.264;18.116;2023-07-09T06:43:43;5.70;;;3.10;;
75059;SDS011;63640;59.264;18.116;2023-07-09T06:46:10;7.05;;;2.88;;
75059;SDS011;63640;59.264;18.116;2023-07-09T06:48:36;6.05;;;2.83;;
75059;SDS011;63640;59.264;18.116;2023-07-09T06:51:02;6.28;;;3.00;;
75059;SDS011;63640;59.264;18.116;2023-07-09T06:53:28;4.88;;;2.88;;
75059;SDS011;63640;59.264;18.116;2023-07-09T06:55:54;5.82;;;3.10;;
75059;SDS011;63640;59.264;18.116;2023-07-09T06:58:23;6.43;;;3.17;;
75059;SDS011;63640;59.264;18.116;2023-07-09T07:00:53;5.75;;;2.40;;
75059;SDS011;63640;59.264;18.116;2023-07-09T07:03:20;5.18;;;2.50;;
75059;SDS011;63640;59.264;18.116;2023-07-09T07:05:46;4.55;;;2.58;;
75059;SDS011;63640;59.264;18.116;2023-07-09T07:08:17;6.05;;;3.08;;
75059;SDS011;63640;59.264;18.116;2023-07-09T07:10:43;5.25;;;2.80;;
75059;SDS011;63640;59.264;18.116;2023-07-09T07:13:11;4.57;;;2.30;;
75059;SDS011;63640;59.264;18.116;2023-07-09T07:15:37;4.60;;;2.30;;
75059;SDS011;63640;59.264;18.116;2023-07-09T07:18:04;3.95;;;1.83;;
75059;SDS011;63640;59.264;18.116;2023-07-09T07:20:30;4.47;;;2.28;;
75059;SDS011;63640;59.264;18.116;2023-07-09T07:22:56;4.97;;;2.40;;
75059;SDS011;63640;59.264;18.116;2023-07-09T07:25:22;4.68;;;1.95;;
75059;SDS011;63640;59.264;18.116;2023-07-09T07:27:48;4.40;;;2.33;;
75059;SDS011;63640;59.264;18.116;2023-07-09T07:30:14;4.57;;;2.30;;
75059;SDS011;63640;59.264;18.116;2023-07-09T07:32:46;4.20;;;2.17;;
75059;SDS011;63640;59.264;18.116;2023-07-09T07:35:14;8.43;;;2.20;;
75059;SDS011;63640;59.264;18.116;2023-07-09T07:37:42;4.18;;;1.80;;
75059;SDS011;63640;59.264;18.116;2023-07-09T07:40:08;4.43;;;1.83;;
75059;SDS011;63640;59.264;18.116;2023-07-09T07:42:35;4.00;;;1.77;;
75059;SDS011;63640;59.264;18.116;2023-07-09T07:45:01;3.65;;;1.50;;
75059;SDS011;63640;59.264;18.116;2023-07-09T07:47:28;4.65;;;2.20;;
75059;SDS011;63640;59.264;18.116;2023-07-09T07:49:53;4.50;;;2.53;;
75059;SDS011;63640;59.264;18.116;2023-07-09T07:52:19;4.10;;;2.00;;
75059;SDS011;63640;59.264;18.116;2023-07-09T07:54:45;4.15;;;1.80;;
75059;SDS011;63640;59.264;18.116;2023-07-09T07:57:11;4.85;;;2.55;;
75059;SDS011;63640;59.264;18.116;2023-07-09T07:59:37;4.50;;;2.33;;
75059;SDS011;63640;59.264;18.116;2023-07-09T08:02:03;4.30;;;1.92;;
75059;SDS011;63640;59.264;18.116;2023-07-09T08:04:29;4.75;;;1.70;;
75059;SDS011;63640;59.264;18.116;2023-07-09T08:06:54;4.15;;;1.80;;
75059;SDS011;63640;59.264;18.116;2023-07-09T08:09:20;3.90;;;2.10;;
75059;SDS011;63640;59.264;18.116;2023-07-09T08:11:45;4.25;;;2.47;;
75059;SDS011;63640;59.264;18.116;2023-07-09T08:14:11;4.93;;;2.45;;
75059;SDS011;63640;59.264;18.116;2023-07-09T08:16:36;7.70;;;2.97;;
75059;SDS011;63640;59.264;18.116;2023-07-09T08:19:02;4.32;;;2.30;;
75059;SDS011;63640;59.264;18.116;2023-07-09T08:21:28;4.40;;;1.95;;
75059;SDS011;63640;59.264;18.116;2023-07-09T08:23:53;4.15;;;2.30;;
75059;SDS011;63640;59.264;18.116;2023-07-09T08:26:19;4.45;;;2.47;;
75059;SDS011;63640;59.264;18.116;2023-07-09T08:28:44;4.85;;;2.00;;
75059;SDS011;63640;59.264;18.116;2023-07-09T08:31:10;4.00;;;1.90;;
75059;SDS011;63640;59.264;18.116;2023-07-09T08:33:35;4.90;;;2.13;;
75059;SDS011;63640;59.264;18.116;2023-07-09T08:36:01;4.40;;;2.40;;
75059;SDS011;63640;59.264;18.116;2023-07-09T08:38:27;4.95;;;2.38;;
75059;SDS011;63640;59.264;18.116;2023-07-09T08:48:47;6.80;;;1.98;;
75059;SDS011;63640;59.264;18.116;2023-07-09T08:53:49;4.82;;;2.40;;
75059;SDS011;63640;59.264;18.116;2023-07-09T08:56:16;4.80;;;1.83;;
75059;SDS011;63640;59.264;18.116;2023-07-09T08:58:42;3.92;;;1.75;;
75059;SDS011;63640;59.264;18.116;2023-07-09T09:01:27;4.30;;;2.63;;
75059;SDS011;63640;59.264;18.116;2023-07-09T09:04:15;4.50;;;1.80;;
75059;SDS011;63640;59.264;18.116;2023-07-09T09:06:57;4.18;;;2.28;;
75059;SDS011;63640;59.264;18.116;2023-07-09T09:09:44;5.05;;;1.77;;
75059;SDS011;63640;59.264;18.116;2023-07-09T09:12:21;4.78;;;2.35;;
75059;SDS011;63640;59.264;18.116;2023-07-09T09:15:00;4.65;;;1.90;;
75059;SDS011;63640;59.264;18.116;2023-07-09T09:17:32;6.00;;;2.45;;
75059;SDS011;63640;59.264;18.116;2023-07-09T09:20:00;4.03;;;1.90;;
75059;SDS011;63640;59.264;18.116;2023-07-09T09:23:09;5.75;;;2.60;;
75059;SDS011;63640;59.264;18.116;2023-07-09T09:25:25;4.75;;;2.40;;
75059;SDS011;63640;59.264;18.116;2023-07-09T09:27:53;4.97;;;2.65;;
75059;SDS011;63640;59.264;18.116;2023-07-09T09:30:20;3.90;;;1.83;;
75059;SDS011;63640;59.264;18.116;2023-07-09T09:32:55;4.32;;;1.95;;
75059;SDS011;63640;59.264;18.116;2023-07-09T09:35:44;4.55;;;2.30;;
75059;SDS011;63640;59.264;18.116;2023-07-09T09:38:17;4.10;;;2.08;;
75059;SDS011;63640;59.264;18.116;2023-07-09T09:40:46;4.40;;;1.90;;
75059;SDS011;63640;59.264;18.116;2023-07-09T09:43:13;5.13;;;1.92;;
75059;SDS011;63640;59.264;18.116;2023-07-09T09:45:41;5.13;;;2.22;;
75059;SDS011;63640;59.264;18.116;2023-07-09T09:48:31;4.70;;;2.25;;
75059;SDS011;63640;59.264;18.116;2023-07-09T09:50:56;5.43;;;2.28;;
75059;SDS011;63640;59.264;18.116;2023-07-09T09:53:26;5.03;;;2.53;;
75059;SDS011;63640;59.264;18.116;2023-07-09T09:55:55;4.35;;;2.00;;
75059;SDS011;63640;59.264;18.116;2023-07-09T09:58:24;6.03;;;2.55;;
75059;SDS011;63640;59.264;18.116;2023-07-09T10:00:53;4.80;;;2.20;;
75059;SDS011;63640;59.264;18.116;2023-07-09T10:03:21;4.53;;;2.33;;
75059;SDS011;63640;59.264;18.116;2023-07-09T10:10:57;4.75;;;2.55;;
75059;SDS011;63640;59.264;18.116;2023-07-09T10:13:34;5.20;;;2.92;;
75059;SDS011;63640;59.264;18.116;2023-07-09T10:16:10;4.57;;;2.40;;
75059;SDS011;63640;59.264;18.116;2023-07-09T10:21:34;5.07;;;2.03;;
75059;SDS011;63640;59.264;18.116;2023-07-09T10:26:53;4.90;;;2.22;;
75059;SDS011;63640;59.264;18.116;2023-07-09T10:29:35;6.38;;;2.42;;
75059;SDS011;63640;59.264;18.116;2023-07-09T10:40:12;4.35;;;2.17;;
75059;SDS011;63640;59.264;18.116;2023-07-09T10:42:44;8.15;;;2.70;;
75059;SDS011;63640;59.264;18.116;2023-07-09T10:45:12;4.93;;;2.35;;
75059;SDS011;63640;59.264;18.116;2023-07-09T10:56:00;4.53;;;1.95;;
75059;SDS011;63640;59.264;18.116;2023-07-09T10:58:37;5.18;;;2.28;;
75059;SDS011;63640;59.264;18.116;2023-07-09T11:01:04;5.07;;;2.30;;
75059;SDS011;63640;59.264;18.116;2023-07-09T11:05:58;4.97;;;2.10;;
75059;SDS011;63640;59.264;18.116;2023-07-09T11:08:34;4.55;;;2.47;;
75059;SDS011;63640;59.264;18.116;2023-07-09T11:11:06;4.63;;;2.30;;
75059;SDS011;63640;59.264;18.116;2023-07-09T11:13:41;6.07;;;2.20;;
75059;SDS011;63640;59.264;18.116;2023-07-09T11:16:08;4.50;;;2.10;;
75059;SDS011;63640;59.264;18.116;2023-07-09T11:18:37;6.63;;;2.10;;
75059;SDS011;63640;59.264;18.116;2023-07-09T11:21:07;5.25;;;2.00;;
75059;SDS011;63640;59.264;18.116;2023-07-09T11:23:50;4.20;;;1.70;;
75059;SDS011;63640;59.264;18.116;2023-07-09T11:26:23;8.88;;;2.60;;
75059;SDS011;63640;59.264;18.116;2023-07-09T11:28:51;7.63;;;2.63;;
75059;SDS011;63640;59.264;18.116;2023-07-09T11:33:47;6.43;;;1.90;;
75059;SDS011;63640;59.264;18.116;2023-07-09T11:36:14;5.78;;;1.55;;
75059;SDS011;63640;59.264;18.116;2023-07-09T11:38:49;4.38;;;1.30;;
75059;SDS011;63640;59.264;18.116;2023-07-09T11:41:28;4.47;;;1.77;;
75059;SDS011;63640;59.264;18.116;2023-07-09T11:47:29;4.82;;;1.95;;
75059;SDS011;63640;59.264;18.116;2023-07-09T11:52:30;4.75;;;1.55;;
75059;SDS011;63640;59.264;18.116;2023-07-09T11:54:57;3.70;;;1.50;;
75059;SDS011;63640;59.264;18.116;2023-07-09T11:57:27;5.78;;;1.60;;
75059;SDS011;63640;59.264;18.116;2023-07-09T11:59:58;3.83;;;1.67;;
75059;SDS011;63640;59.264;18.116;2023-07-09T12:02:26;4.65;;;1.70;;
75059;SDS011;63640;59.264;18.116;2023-07-09T12:04:56;4.18;;;1.50;;
75059;SDS011;63640;59.264;18.116;2023-07-09T12:07:22;5.28;;;1.50;;
75059;SDS011;63640;59.264;18.116;2023-07-09T12:09:50;4.28;;;1.63;;
75059;SDS011;63640;59.264;18.116;2023-07-09T12:12:17;4.10;;;1.48;;
75059;SDS011;63640;59.264;18.116;2023-07-09T12:14:44;5.20;;;1.60;;
75059;SDS011;63640;59.264;18.116;2023-07-09T12:17:09;4.47;;;1.88;;
75059;SDS011;63640;59.264;18.116;2023-07-09T12:19:35;4.00;;;1.73;;
75059;SDS011;63640;59.264;18.116;2023-07-09T12:22:01;4.85;;;1.63;;
75059;SDS011;63640;59.264;18.116;2023-07-09T12:24:28;3.60;;;1.70;;
75059;SDS011;63640;59.264;18.116;2023-07-09T12:26:59;3.85;;;1.52;;
75059;SDS011;63640;59.264;18.116;2023-07-09T12:29:35;4.38;;;1.40;;
75059;SDS011;63640;59.264;18.116;2023-07-09T12:32:09;4.93;;;1.65;;
75059;SDS011;63640;59.264;18.116;2023-07-09T12:34:37;5.20;;;2.65;;
75059;SDS011;63640;59.264;18.116;2023-07-09T12:37:02;4.95;;;2.30;;
75059;SDS011;63640;59.264;18.116;2023-07-09T12:39:29;5.03;;;2.75;;
75059;SDS011;63640;59.264;18.116;2023-07-09T12:41:58;9.93;;;3.22;;
75059;SDS011;63640;59.264;18.116;2023-07-09T12:44:25;6.03;;;2.63;;
75059;SDS011;63640;59.264;18.116;2023-07-09T12:46:52;5.93;;;2.72;;
75059;SDS011;63640;59.264;18.116;2023-07-09T12:49:28;4.90;;;2.90;;
75059;SDS011;63640;59.264;18.116;2023-07-09T12:51:57;4.88;;;2.92;;
75059;SDS011;63640;59.264;18.116;2023-07-09T12:54:24;7.53;;;2.70;;
75059;SDS011;63640;59.264;18.116;2023-07-09T12:56:50;5.30;;;2.20;;
75059;SDS011;63640;59.264;18.116;2023-07-09T12:59:22;4.50;;;2.28;;
75059;SDS011;63640;59.264;18.116;2023-07-09T13:02:37;6.10;;;3.33;;
75059;SDS011;63640;59.264;18.116;2023-07-09T13:07:03;5.47;;;2.75;;
75059;SDS011;63640;59.264;18.116;2023-07-09T13:09:29;5.75;;;2.78;;
75059;SDS011;63640;59.264;18.116;2023-07-09T13:11:55;6.55;;;2.97;;
75059;SDS011;63640;59.264;18.116;2023-07-09T13:14:22;4.63;;;2.25;;
75059;SDS011;63640;59.264;18.116;2023-07-09T13:16:49;6.93;;;2.60;;
75059;SDS011;63640;59.264;18.116;2023-07-09T13:19:16;5.13;;;2.92;;
75059;SDS011;63640;59.264;18.116;2023-07-09T13:21:42;4.72;;;2.60;;
75059;SDS011;63640;59.264;18.116;2023-07-09T13:24:11;5.80;;;2.78;;
75059;SDS011;63640;59.264;18.116;2023-07-09T13:29:09;4.68;;;2.50;;
75059;SDS011;63640;59.264;18.116;2023-07-09T13:31:38;4.57;;;2.40;;
75059;SDS011;63640;59.264;18.116;2023-07-09T13:34:04;4.47;;;2.20;;
75059;SDS011;63640;59.264;18.116;2023-07-09T13:36:38;4.00;;;1.77;;
75059;SDS011;63640;59.264;18.116;2023-07-09T13:39:04;4.78;;;2.00;;
75059;SDS011;63640;59.264;18.116;2023-07-09T13:41:30;5.63;;;2.40;;
75059;SDS011;63640;59.264;18.116;2023-07-09T13:43:56;5.07;;;2.20;;
75059;SDS011;63640;59.264;18.116;2023-07-09T13:46:23;4.70;;;2.25;;
75059;SDS011;63640;59.264;18.116;2023-07-09T13:48:51;5.25;;;1.95;;
75059;SDS011;63640;59.264;18.116;2023-07-09T13:51:20;5.45;;;2.08;;
75059;SDS011;63640;59.264;18.116;2023-07-09T13:53:51;3.75;;;1.77;;
75059;SDS011;63640;59.264;18.116;2023-07-09T13:56:19;5.65;;;2.47;;
75059;SDS011;63640;59.264;18.116;2023-07-09T13:58:44;4.95;;;2.47;;
75059;SDS011;63640;59.264;18.116;2023-07-09T14:01:14;4.35;;;2.20;;
75059;SDS011;63640;59.264;18.116;2023-07-09T14:03:41;6.28;;;2.60;;
75059;SDS011;63640;59.264;18.116;2023-07-09T14:06:09;4.72;;;2.25;;
75059;SDS011;63640;59.264;18.116;2023-07-09T14:08:37;4.50;;;2.40;;
75059;SDS011;63640;59.264;18.116;2023-07-09T14:11:02;4.43;;;2.00;;
75059;SDS011;63640;59.264;18.116;2023-07-09T14:13:28;4.82;;;2.25;;
75059;SDS011;63640;59.264;18.116;2023-07-09T14:15:54;4.70;;;2.10;;
75059;SDS011;63640;59.264;18.116;2023-07-09T14:18:20;4.32;;;2.40;;
75059;SDS011;63640;59.264;18.116;2023-07-09T14:20:47;4.72;;;2.33;;
75059;SDS011;63640;59.264;18.116;2023-07-09T14:23:14;6.15;;;2.70;;
75059;SDS011;63640;59.264;18.116;2023-07-09T14:25:41;5.00;;;2.30;;
75059;SDS011;63640;59.264;18.116;2023-07-09T14:28:11;4.75;;;2.40;;
75059;SDS011;63640;59.264;18.116;2023-07-09T14:30:41;4.38;;;2.25;;
75059;SDS011;63640;59.264;18.116;2023-07-09T14:33:13;4.78;;;2.15;;
75059;SDS011;63640;59.264;18.116;2023-07-09T14:35:40;4.43;;;1.90;;
75059;SDS011;63640;59.264;18.116;2023-07-09T14:38:24;6.13;;;2.15;;
75059;SDS011;63640;59.264;18.116;2023-07-09T14:40:51;5.03;;;2.17;;
75059;SDS011;63640;59.264;18.116;2023-07-09T14:43:18;4.10;;;2.20;;
75059;SDS011;63640;59.264;18.116;2023-07-09T14:45:43;3.95;;;1.95;;
75059;SDS011;63640;59.264;18.116;2023-07-09T14:48:10;5.07;;;1.92;;
75059;SDS011;63640;59.264;18.116;2023-07-09T14:50:37;4.22;;;2.22;;
75059;SDS011;63640;59.264;18.116;2023-07-09T14:53:03;4.20;;;2.10;;
75059;SDS011;63640;59.264;18.116;2023-07-09T14:55:30;5.40;;;2.53;;
75059;SDS011;63640;59.264;18.116;2023-07-09T14:57:55;4.57;;;2.28;;
75059;SDS011;63640;59.264;18.116;2023-07-09T15:00:24;6.55;;;2.10;;
75059;SDS011;63640;59.264;18.116;2023-07-09T15:02:51;4.10;;;2.00;;
75059;SDS011;63640;59.264;18.116;2023-07-09T15:05:18;4.15;;;1.90;;
75059;SDS011;63640;59.264;18.116;2023-07-09T15:07:45;4.95;;;2.28;;
75059;SDS011;63640;59.264;18.116;2023-07-09T15:10:12;4.75;;;2.40;;
75059;SDS011;63640;59.264;18.116;2023-07-09T15:12:39;4.07;;;2.00;;
75059;SDS011;63640;59.264;18.116;2023-07-09T15:17:43;4.00;;;2.13;;
75059;SDS011;63640;59.264;18.116;2023-07-09T15:20:15;4.53;;;2.00;;
75059;SDS011;63640;59.264;18.116;2023-07-09T15:22:42;4.88;;;2.15;;
75059;SDS011;63640;59.264;18.116;2023-07-09T15:25:11;4.97;;;2.25;;
75059;SDS011;63640;59.264;18.116;2023-07-09T15:27:39;4.45;;;2.30;;
75059;SDS011;63640;59.264;18.116;2023-07-09T15:33:02;6.03;;;1.88;;
75059;SDS011;63640;59.264;18.116;2023-07-09T15:35:31;4.20;;;2.05;;
75059;SDS011;63640;59.264;18.116;2023-07-09T15:37:58;4.30;;;2.10;;
75059;SDS011;63640;59.264;18.116;2023-07-09T15:40:25;3.92;;;1.83;;
75059;SDS011;63640;59.264;18.116;2023-07-09T15:42:56;3.95;;;1.95;;
75059;SDS011;63640;59.264;18.116;2023-07-09T15:45:23;4.68;;;1.92;;